Kaszuby — C6XD6 — position and weather

sailwx.info

Track history (hours):
 
Tides and Currents Weather Stations Pressure Air Temp Water Temp Dewpoint Dewpoint Depression Visibility Wind Speed Wind Dir Waves Ship Positions

Kaszuby

Last reported at 2018-Feb-19 05:25 UTC. Time now 2018-Feb-23 07:04 UTC.
Position N 56°11' E 017°05'.

Length 190 m; draft 9.7 m.

Type: Cargo ship. MMSI: 311005600.

Date/timePositionNaut miles runAvg speedWind from/ knotsBaromVisibWave heightAir tempDewpointWater temp
2018-Feb-19 05:25N 56°11' E 017°05'510.8
2018-Feb-19 04:59N 56°09' E 016°58'510.8
2018-Feb-19 04:30N 56°06' E 016°51'510.9
2018-Feb-19 04:00N 56°03' E 016°43'510.8
2018-Feb-19 03:30N 55°60' E 016°35'510.8
2018-Feb-19 03:00N 55°57' E 016°26'510.8
2018-Feb-19 02:30N 55°54' E 016°18'510.8
2018-Feb-19 02:00N 55°51' E 016°10'510.9
2018-Feb-19 01:30N 55°49' E 016°01'510.9
2018-Feb-19 01:00N 55°46' E 015°53'611.0
2018-Feb-19 00:30N 55°44' E 015°44'611.1
2018-Feb-19 00:00N 55°41' E 015°36'611.0
2018-Feb-18 23:30N 55°38' E 015°27'611.1
2018-Feb-18 23:00N 55°34' E 015°20'510.9
2018-Feb-18 22:30N 55°32' E 015°11'511.0
2018-Feb-18 22:00N 55°30' E 015°02'610.9
2018-Feb-18 21:28N 55°27' E 014°53'610.8
2018-Feb-18 20:54N 55°25' E 014°43'410.8
2018-Feb-18 20:30N 55°22' E 014°37'610.9
2018-Feb-18 19:58N 55°18' E 014°30'710.9
2018-Feb-18 19:22N 55°13' E 014°23'410.9
2018-Feb-18 19:00N 55°10' E 014°19'510.9
2018-Feb-18 18:30N 55°05' E 014°13'510.8
2018-Feb-18 18:00N 55°01' E 014°07'4310.6
2018-Feb-18 14:00N 54°47' E 012°57'1010.7
2018-Feb-18 13:04N 54°44' E 012°40'110.7
2018-Feb-18 12:59N 54°44' E 012°39'610.7
2018-Feb-18 12:27N 54°41' E 012°30'510.9
2018-Feb-18 11:57N 54°38' E 012°23'510.8
2018-Feb-18 11:28N 54°34' E 012°17'16 9.5
2018-Feb-18 09:50N 54°25' E 011°55'411.7
2018-Feb-18 09:30N 54°25' E 011°49'611.4
2018-Feb-18 09:00N 54°27' E 011°39'611.4
2018-Feb-18 08:30N 54°30' E 011°31'611.1
2018-Feb-18 08:00N 54°32' E 011°22'510.8
2018-Feb-18 07:30N 54°34' E 011°13'510.7
2018-Feb-18 07:00N 54°37' E 011°05'611.0
2018-Feb-18 06:30N 54°40' E 010°57'5 9.7
2018-Feb-18 06:00N 54°43' E 010°51'510.7
2018-Feb-18 05:30N 54°49' E 010°52'510.8
2018-Feb-18 05:00N 54°54' E 010°53'510.7
2018-Feb-18 04:30N 54°58' E 010°59'510.8
2018-Feb-18 04:00N 55°03' E 011°02'611.4
2018-Feb-18 03:30N 55°09' E 011°03'510.3
2018-Feb-18 03:00N 55°14' E 011°06'611.2
2018-Feb-18 02:30N 55°19' E 011°02'610.6
2018-Feb-18 01:57N 55°24' E 010°59'3110.1
2018-Feb-17 22:55N 55°55' E 010°56'1511.2
2018-Feb-17 21:36N 56°07' E 011°10'611.3
2018-Feb-17 21:02N 56°12' E 011°18'3910.7
2018-Feb-17 17:23N 56°47' E 011°51'410.7
2018-Feb-17 17:00N 56°51' E 011°48'611.0
2018-Feb-17 16:30N 56°56' E 011°44'511.0
2018-Feb-17 16:00N 57°01' E 011°41'510.9
2018-Feb-17 15:30N 57°06' E 011°38'510.9
2018-Feb-17 15:00N 57°11' E 011°34'510.9
2018-Feb-17 14:30N 57°16' E 011°31'510.3
2018-Feb-17 14:00N 57°21' E 011°28'510.2
2018-Feb-17 13:30N 57°26' E 011°25'510.0
2018-Feb-17 13:00N 57°30' E 011°19'5 9.7
2018-Feb-17 12:30N 57°33' E 011°13'5 9.8
2018-Feb-17 12:00N 57°37' E 011°06'510.4
2018-Feb-17 11:30N 57°40' E 010°59'510.8
2018-Feb-17 11:00N 57°44' E 010°52'510.5
2018-Feb-17 10:30N 57°47' E 010°44'612.2
2018-Feb-17 10:00N 57°48' E 010°33'612.6
2018-Feb-17 09:30N 57°47' E 010°21'612.2
2018-Feb-17 09:00N 57°46' E 010°10'29811.0
2018-Feb-16 05:56N 53°55' E 004°34'511.5
2018-Feb-16 05:29N 53°51' E 004°28'511.0
2018-Feb-16 05:00N 53°47' E 004°23'611.6
2018-Feb-16 04:29N 53°43' E 004°15'611.5
2018-Feb-16 03:59N 53°40' E 004°07'11410.6
2018-Feb-15 17:13N 51°59' E 002°40'1011.9
2018-Feb-15 16:25N 51°50' E 002°38'512.6
2018-Feb-15 16:00N 51°45' E 002°34'612.3
2018-Feb-15 15:30N 51°40' E 002°28'612.7
2018-Feb-15 15:00N 51°36' E 002°21'713.3
2018-Feb-15 14:29N 51°31' E 002°13'613.2
2018-Feb-15 14:00N 51°26' E 002°07'713.4
2018-Feb-15 13:30N 51°21' E 001°60'713.7
2018-Feb-15 13:00N 51°15' E 001°52'714.3
2018-Feb-15 12:30N 51°10' E 001°45'714.8
2018-Feb-15 12:00N 51°04' E 001°38'815.6
2018-Feb-15 11:30N 50°58' E 001°31'815.0
2018-Feb-15 11:00N 50°51' E 001°26'713.9
2018-Feb-15 10:31N 50°44' E 001°23'813.0
2018-Feb-15 09:56N 50°38' E 001°15'613.1
2018-Feb-15 09:30N 50°35' E 001°09'713.0
2018-Feb-15 08:57N 50°30' E 000°60'713.3
2018-Feb-15 08:27N 50°28' E 000°50'613.4
2018-Feb-15 07:59N 50°26' E 000°40'1013.4
2018-Feb-15 07:14N 50°23' E 000°25'313.3
2018-Feb-15 07:00N 50°22' E 000°21'613.0
2018-Feb-15 06:30N 50°21' E 000°11'612.5
2018-Feb-15 06:01N 50°19' E 000°02'612.0
2018-Feb-15 05:31N 50°17' W 000°08'611.5
2018-Feb-15 05:00N 50°16' W 000°16'1110.7
2018-Feb-15 03:56N 50°12' W 000°34'410.0
2018-Feb-15 03:29N 50°11' W 000°40'5 9.5
2018-Feb-15 03:00N 50°10' W 000°47'5 9.2
2018-Feb-15 02:30N 50°09' W 000°54'5510.5
2018-Feb-14 21:15N 49°55' W 002°17'613.1
2018-Feb-14 20:47N 49°54' W 002°26'1013.0
2018-Feb-14 20:02N 49°51' W 002°41'012.9
2018-Feb-14 20:01N 49°51' W 002°41'712.9
2018-Feb-14 19:30N 49°49' W 002°51'712.8
2018-Feb-14 18:57N 49°46' W 003°01'712.7
2018-Feb-14 18:24N 49°42' W 003°10'512.5
2018-Feb-14 18:01N 49°40' W 003°17'4812.2
2018-Feb-14 14:02N 49°17' W 004°22'111.4
2018-Feb-14 13:57N 49°17' W 004°23'  
Track history (hours):
 
Tides and Currents Weather Stations Pressure Air Temp Water Temp Dewpoint Dewpoint Depression Visibility Wind Speed Wind Dir Waves Ship Positions

Kaszuby

Last reported at 2018-Feb-19 05:25 UTC. Time now 2018-Feb-23 07:04 UTC.
Position N 56°11' E 017°05'.

Length 190 m; draft 9.7 m.

Type: Cargo ship. MMSI: 311005600.

Date/timePositionNaut miles runAvg speedWind from/ knotsBaromVisibWave heightAir tempDewpointWater temp
2018-Feb-19 05:25N 56°11' E 017°05'510.8
2018-Feb-19 04:59N 56°09' E 016°58'510.8
2018-Feb-19 04:30N 56°06' E 016°51'510.9
2018-Feb-19 04:00N 56°03' E 016°43'510.8
2018-Feb-19 03:30N 55°60' E 016°35'510.8
2018-Feb-19 03:00N 55°57' E 016°26'510.8
2018-Feb-19 02:30N 55°54' E 016°18'510.8
2018-Feb-19 02:00N 55°51' E 016°10'510.9
2018-Feb-19 01:30N 55°49' E 016°01'510.9
2018-Feb-19 01:00N 55°46' E 015°53'611.0
2018-Feb-19 00:30N 55°44' E 015°44'611.1
2018-Feb-19 00:00N 55°41' E 015°36'611.0
2018-Feb-18 23:30N 55°38' E 015°27'611.1
2018-Feb-18 23:00N 55°34' E 015°20'510.9
2018-Feb-18 22:30N 55°32' E 015°11'511.0
2018-Feb-18 22:00N 55°30' E 015°02'610.9
2018-Feb-18 21:28N 55°27' E 014°53'610.8
2018-Feb-18 20:54N 55°25' E 014°43'410.8
2018-Feb-18 20:30N 55°22' E 014°37'610.9
2018-Feb-18 19:58N 55°18' E 014°30'710.9
2018-Feb-18 19:22N 55°13' E 014°23'410.9
2018-Feb-18 19:00N 55°10' E 014°19'510.9
2018-Feb-18 18:30N 55°05' E 014°13'510.8
2018-Feb-18 18:00N 55°01' E 014°07'4310.6
2018-Feb-18 14:00N 54°47' E 012°57'1010.7
2018-Feb-18 13:04N 54°44' E 012°40'110.7
2018-Feb-18 12:59N 54°44' E 012°39'610.7
2018-Feb-18 12:27N 54°41' E 012°30'510.9
2018-Feb-18 11:57N 54°38' E 012°23'510.8
2018-Feb-18 11:28N 54°34' E 012°17'16 9.5
2018-Feb-18 09:50N 54°25' E 011°55'411.7
2018-Feb-18 09:30N 54°25' E 011°49'611.4
2018-Feb-18 09:00N 54°27' E 011°39'611.4
2018-Feb-18 08:30N 54°30' E 011°31'611.1
2018-Feb-18 08:00N 54°32' E 011°22'510.8
2018-Feb-18 07:30N 54°34' E 011°13'510.7
2018-Feb-18 07:00N 54°37' E 011°05'611.0
2018-Feb-18 06:30N 54°40' E 010°57'5 9.7
2018-Feb-18 06:00N 54°43' E 010°51'510.7
2018-Feb-18 05:30N 54°49' E 010°52'510.8
2018-Feb-18 05:00N 54°54' E 010°53'510.7
2018-Feb-18 04:30N 54°58' E 010°59'510.8
2018-Feb-18 04:00N 55°03' E 011°02'611.4
2018-Feb-18 03:30N 55°09' E 011°03'510.3
2018-Feb-18 03:00N 55°14' E 011°06'611.2
2018-Feb-18 02:30N 55°19' E 011°02'610.6
2018-Feb-18 01:57N 55°24' E 010°59'3110.1
2018-Feb-17 22:55N 55°55' E 010°56'1511.2
2018-Feb-17 21:36N 56°07' E 011°10'611.3
2018-Feb-17 21:02N 56°12' E 011°18'3910.7
2018-Feb-17 17:23N 56°47' E 011°51'410.7
2018-Feb-17 17:00N 56°51' E 011°48'611.0
2018-Feb-17 16:30N 56°56' E 011°44'511.0
2018-Feb-17 16:00N 57°01' E 011°41'510.9
2018-Feb-17 15:30N 57°06' E 011°38'510.9
2018-Feb-17 15:00N 57°11' E 011°34'510.9
2018-Feb-17 14:30N 57°16' E 011°31'510.3
2018-Feb-17 14:00N 57°21' E 011°28'510.2
2018-Feb-17 13:30N 57°26' E 011°25'510.0
2018-Feb-17 13:00N 57°30' E 011°19'5 9.7
2018-Feb-17 12:30N 57°33' E 011°13'5 9.8
2018-Feb-17 12:00N 57°37' E 011°06'510.4
2018-Feb-17 11:30N 57°40' E 010°59'510.8
2018-Feb-17 11:00N 57°44' E 010°52'510.5
2018-Feb-17 10:30N 57°47' E 010°44'612.2
2018-Feb-17 10:00N 57°48' E 010°33'612.6
2018-Feb-17 09:30N 57°47' E 010°21'612.2
2018-Feb-17 09:00N 57°46' E 010°10'29811.0
2018-Feb-16 05:56N 53°55' E 004°34'511.5
2018-Feb-16 05:29N 53°51' E 004°28'511.0
2018-Feb-16 05:00N 53°47' E 004°23'611.6
2018-Feb-16 04:29N 53°43' E 004°15'611.5
2018-Feb-16 03:59N 53°40' E 004°07'11410.6
2018-Feb-15 17:13N 51°59' E 002°40'1011.9
2018-Feb-15 16:25N 51°50' E 002°38'512.6
2018-Feb-15 16:00N 51°45' E 002°34'612.3
2018-Feb-15 15:30N 51°40' E 002°28'612.7
2018-Feb-15 15:00N 51°36' E 002°21'713.3
2018-Feb-15 14:29N 51°31' E 002°13'613.2
2018-Feb-15 14:00N 51°26' E 002°07'713.4
2018-Feb-15 13:30N 51°21' E 001°60'713.7
2018-Feb-15 13:00N 51°15' E 001°52'714.3
2018-Feb-15 12:30N 51°10' E 001°45'714.8
2018-Feb-15 12:00N 51°04' E 001°38'815.6
2018-Feb-15 11:30N 50°58' E 001°31'815.0
2018-Feb-15 11:00N 50°51' E 001°26'713.9
2018-Feb-15 10:31N 50°44' E 001°23'813.0
2018-Feb-15 09:56N 50°38' E 001°15'613.1
2018-Feb-15 09:30N 50°35' E 001°09'713.0
2018-Feb-15 08:57N 50°30' E 000°60'713.3
2018-Feb-15 08:27N 50°28' E 000°50'613.4
2018-Feb-15 07:59N 50°26' E 000°40'1013.4
2018-Feb-15 07:14N 50°23' E 000°25'313.3
2018-Feb-15 07:00N 50°22' E 000°21'613.0
2018-Feb-15 06:30N 50°21' E 000°11'612.5
2018-Feb-15 06:01N 50°19' E 000°02'612.0
2018-Feb-15 05:31N 50°17' W 000°08'611.5
2018-Feb-15 05:00N 50°16' W 000°16'1110.7
2018-Feb-15 03:56N 50°12' W 000°34'410.0
2018-Feb-15 03:29N 50°11' W 000°40'5 9.5
2018-Feb-15 03:00N 50°10' W 000°47'5 9.2
2018-Feb-15 02:30N 50°09' W 000°54'5510.5
2018-Feb-14 21:15N 49°55' W 002°17'613.1
2018-Feb-14 20:47N 49°54' W 002°26'1013.0
2018-Feb-14 20:02N 49°51' W 002°41'012.9
2018-Feb-14 20:01N 49°51' W 002°41'712.9
2018-Feb-14 19:30N 49°49' W 002°51'712.8
2018-Feb-14 18:57N 49°46' W 003°01'712.7
2018-Feb-14 18:24N 49°42' W 003°10'512.5
2018-Feb-14 18:01N 49°40' W 003°17'4812.2
2018-Feb-14 14:02N 49°17' W 004°22'111.4
2018-Feb-14 13:57N 49°17' W 004°23'  

Dump ship's entire track history